Terminal Aerodrome Forecast
Issued by NWS

Home | Current Version | Previous Version | Text Only | Print | Product List | Glossary On
Versions: 1 2 3 4 5 6 7 8 9 10 11 12 13 14 15 16 17 18 19
679
FTUS44 KEWX 231733
TAFSSF
TAF
KSSF 231733Z 2318/2418 01010KT P6SM SKC
     FM232200 02007KT P6SM SKC
     FM240300 VRB03KT P6SM SKC
     FM241500 15008KT P6SM FEW250=

USA.gov is the U.S. government's official web portal to all federal, state and local government web resources and services.